首页
METAR-TAF:

METAR-TAF

机场 :

尼姆, 法国

纬度: 43-45N, 经度: 004-25E, 海拔: 94米

当前天气观测

该预报发布于19分钟前的07:30 UTC
风速6节,风向西转西北
温度 3°C
湿度 93%
气压 1006 hPa
能见度10公里或以上
1500米以下无云,无积雨云

METAR: LFTW 170730Z AUTO 29006KT CAVOK 03/02 Q1006 NOSIG

时间: 08:49 (07:49 UTC)

预报

该预报发布于5小时和49分钟前的02:00 UTC
预报有效从17日的 03点(UTC)到 18日的 03点(UTC)
风速5节,风向多变
能见度10公里或以上
1500米以下无云,无积雨云
短暂存在
从 17日的 03点(UTC)到 17日的 08点(UTC)
能見度: 1200
轻雾
几率 30% :
短暂存在
从 17日的 03点(UTC)到 17日的 06点(UTC)
能見度: 0200
短暂存在
从 17日的 18点(UTC)到 18日的 03点(UTC)
能見度: 1200
轻雾

TAF: LFTW 170200Z 1703/1803 VRB05KT CAVOK TEMPO 1703/1708 1200 BR PROB30 TEMPO 1703/1706 0200 FG VV/// TEMPO 1718/1803 1200 BR

超过4000个机场的气象观测和天气预报(METAR&TAF报告)。

可查询的气象台以黄色和红色小点在地图上表示。

将鼠标移到小点上方,可查看气象台名称。

然后点击查看天气观测和预报。

如需切换地图:点击带黑十字的绿色按钮放大地图;点击带横线的绿色按钮缩小地图;或者点击绿色箭头查看邻近地区的地图。


METAR-TAF: